Orlando, FL (32807)

10:13 AM EDT on September 26, 2016 (GMT -0400)
Azalea Park | | Change Station

Elev 104 ft 28.54 °N, 81.30 °W | Updated 2 seconds ago

Partly Cloudy
Partly Cloudy
81.6 °F
Feels Like 89 °F
N
0.0
Wind Variable Wind from ESE
Gusts 4.4 mph

Today
High -- | Low -- °F
--% Chance of Precip.
Yesterday
High -- | Low -- °F
Precip. -- in
Pressure 30.03 in
Visibility 10.0 miles
Clouds Few 1700 ft
Heat Index 89 °F
Dew Point 77 °F
Humidity 86%
Rainfall 0.00 in
Snow Depth Not available.
7:15 AM 7:16 PM
Waning Crescent, 18% visible
METAR KORL 261353Z 00000KT 10SM FEW017 27/24 A3002 RMK AO2 SLP167 T02720239
Pressure 30.03 in
Visibility 10.0 miles
Clouds Few 1700 ft
Heat Index 89 °F
Dew Point 77 °F
Humidity 86%
Rainfall 0.00 in
Snow Depth Not available.
7:15 AM 7:16 PM
Waning Crescent, 18% visible
METAR KORL 261353Z 00000KT 10SM FEW017 27/24 A3002 RMK AO2 SLP167 T02720239

10-Day Weather Forecast

Almanac

Astronomy

Sep. 26, 2016 Rise Set
Actual Time
Civil Twilight
Nautical Twilight
Astronomical Twilight
Moon
Length of Visible Light
Length of Day
Tomorrow will be .
, % of the Moon is Illuminated

Today's Extremes

State Highs State Lows

Community

WunderPhotos

Upload Photos

1,941,887 photos uploaded!

WunderBlog® & News

Nearby

Air Quality

  Air Quality AQ Index Pollutant
Not available.

Snow Depth

Station Depth Elevation

Earthquake Activity

City Distance Mag. Time & Date
Minimum magnitude displayed is 2.5.

Coastal Water Temperatures

Place Temperature

Stations

Nearby Weather Stations

Station Location Temp. Windchill Dew Point Humidity Wind Precip. Elev Updated Type
                   

Watches & Warnings

There are currently no watches in effect.